createdAt,value
2018-08-31T00:00:35.133Z,85.63
2018-08-31T00:01:35.123Z,85.87
2018-08-31T00:02:35.116Z,85.44
2018-08-31T00:03:35.094Z,85.34
2018-08-31T00:04:35.081Z,85.53
2018-08-31T00:05:35.063Z,85.97
2018-08-31T00:06:35.057Z,85.68
2018-08-31T00:07:35.103Z,85.68
2018-08-31T00:08:35.028Z,85.77
2018-08-31T00:09:35.116Z,85.97
2018-08-31T00:10:35.003Z,85.68
2018-08-31T00:11:34.984Z,85.63
2018-08-31T00:12:34.966Z,86.06
2018-08-31T00:13:34.967Z,85.30
2018-08-31T00:14:34.956Z,85.82
2018-08-31T00:15:34.935Z,85.25
2018-08-31T00:16:34.918Z,85.34
2018-08-31T00:17:34.911Z,84.86
2018-08-31T00:18:34.959Z,85.25
2018-08-31T00:19:34.883Z,85.15
2018-08-31T00:20:34.866Z,85.44
2018-08-31T00:21:34.846Z,84.48
2018-08-31T00:22:34.844Z,85.34
2018-08-31T00:23:34.831Z,84.77
2018-08-31T00:24:34.870Z,84.96
2018-08-31T00:25:34.805Z,84.67
2018-08-31T00:26:34.787Z,84.77
2018-08-31T00:27:34.762Z,85.34
2018-08-31T00:28:34.766Z,84.86
2018-08-31T00:29:34.754Z,84.96
2018-08-31T00:30:34.787Z,84.58
2018-08-31T00:31:34.713Z,84.77
2018-08-31T00:32:34.707Z,84.96
2018-08-31T00:33:34.694Z,85.05
2018-08-31T00:34:34.676Z,85.05
2018-08-31T00:35:34.668Z,85.05
2018-08-31T00:36:34.655Z,84.67
2018-08-31T00:37:34.629Z,84.58
2018-08-31T00:38:34.613Z,84.58
2018-08-31T00:39:34.640Z,84.58
2018-08-31T00:40:34.589Z,84.58
2018-08-31T00:41:34.570Z,84.58
2018-08-31T00:42:34.566Z,84.77
2018-08-31T00:43:34.556Z,85.05
2018-08-31T00:44:34.599Z,84.77
2018-08-31T00:45:34.522Z,84.58
2018-08-31T00:46:34.513Z,84.20
2018-08-31T00:47:34.496Z,84.10
2018-08-31T00:48:34.485Z,84.96
2018-08-31T00:49:34.462Z,84.77
2018-08-31T00:50:34.463Z,84.29
2018-08-31T00:51:34.447Z,84.48
2018-08-31T00:52:34.428Z,84.29
2018-08-31T00:53:34.459Z,84.29
2018-08-31T00:54:34.405Z,84.20
2018-08-31T00:55:34.389Z,84.10
2018-08-31T00:56:34.384Z,84.20
2018-08-31T00:57:34.362Z,83.91
2018-08-31T00:58:34.350Z,84.00
2018-08-31T00:59:34.362Z,83.62
2018-08-31T01:00:34.317Z,83.91
2018-08-31T01:01:34.315Z,83.62
2018-08-31T01:02:34.296Z,84.00
2018-08-31T01:03:34.295Z,83.77
2018-08-31T01:04:34.309Z,84.16
2018-08-31T01:05:34.261Z,84.16
2018-08-31T01:06:34.242Z,83.77
2018-08-31T01:07:34.223Z,83.77
2018-08-31T01:08:34.218Z,83.87
2018-08-31T01:09:34.199Z,83.96
2018-08-31T01:10:34.196Z,83.58
2018-08-31T01:11:34.173Z,83.96
2018-08-31T01:12:34.161Z,84.16
2018-08-31T01:13:34.151Z,84.06
2018-08-31T01:14:34.135Z,84.16
2018-08-31T01:15:34.190Z,84.25
2018-08-31T01:16:34.100Z,84.16
2018-08-31T01:17:34.091Z,84.16
2018-08-31T01:18:34.084Z,84.25
2018-08-31T01:19:34.068Z,84.16
2018-08-31T01:20:34.063Z,84.16
2018-08-31T01:21:34.064Z,83.67
2018-08-31T01:22:34.020Z,84.25
2018-08-31T01:23:34.005Z,84.06
2018-08-31T01:24:33.995Z,83.77
2018-08-31T01:25:34.016Z,83.77
2018-08-31T01:26:33.965Z,84.25
2018-08-31T01:27:33.962Z,84.16
2018-08-31T01:28:33.932Z,83.77
2018-08-31T01:29:33.917Z,83.87
2018-08-31T01:30:33.965Z,83.87
2018-08-31T01:31:33.900Z,83.67
2018-08-31T01:32:33.883Z,84.16
2018-08-31T01:33:33.870Z,84.25
2018-08-31T01:34:33.864Z,84.63
2018-08-31T01:35:33.835Z,84.53
2018-08-31T01:36:33.853Z,84.82
2018-08-31T01:37:33.818Z,84.63
2018-08-31T01:38:33.794Z,84.63
2018-08-31T01:39:33.796Z,84.53
2018-08-31T01:40:33.773Z,84.82
2018-08-31T01:41:33.768Z,84.72
2018-08-31T01:42:33.752Z,84.63
2018-08-31T01:43:33.724Z,85.21
2018-08-31T01:44:33.712Z,85.30
2018-08-31T01:45:33.705Z,85.39
2018-08-31T01:46:33.692Z,85.01
2018-08-31T01:47:33.713Z,84.72
2018-08-31T01:48:33.666Z,84.63
2018-08-31T01:49:33.678Z,84.53
2018-08-31T01:50:33.634Z,84.72
2018-08-31T01:51:33.620Z,84.25
2018-08-31T01:52:33.643Z,83.87
2018-08-31T01:53:33.623Z,83.77
2018-08-31T01:54:33.581Z,84.06
2018-08-31T01:55:33.570Z,84.16
2018-08-31T01:56:33.560Z,84.16
2018-08-31T01:57:33.547Z,83.77
2018-08-31T01:58:33.555Z,83.77
2018-08-31T01:59:33.517Z,83.87
2018-08-31T02:00:33.501Z,83.96
2018-08-31T02:01:33.494Z,83.87
2018-08-31T02:02:33.474Z,83.77
2018-08-31T02:03:33.507Z,84.06
2018-08-31T02:04:33.446Z,83.77
2018-08-31T02:05:33.429Z,84.16
2018-08-31T02:06:33.416Z,83.87
2018-08-31T02:07:33.411Z,84.06
2018-08-31T02:08:33.393Z,84.06
2018-08-31T02:09:33.380Z,83.96
2018-08-31T02:10:33.352Z,84.16
2018-08-31T02:11:33.340Z,84.06
2018-08-31T02:12:33.329Z,83.87
2018-08-31T02:13:33.382Z,84.16
2018-08-31T02:14:33.309Z,83.96
2018-08-31T02:15:33.288Z,83.87
2018-08-31T02:16:33.284Z,83.77
2018-08-31T02:17:33.251Z,84.34
2018-08-31T02:18:33.246Z,84.16
2018-08-31T02:19:33.546Z,84.63
2018-08-31T02:20:33.229Z,84.72
2018-08-31T02:21:33.201Z,84.40
2018-08-31T02:22:33.197Z,84.49
2018-08-31T02:23:33.185Z,84.59
2018-08-31T02:24:33.187Z,84.69
2018-08-31T02:25:33.152Z,84.11
2018-08-31T02:26:33.131Z,84.88
2018-08-31T02:27:33.131Z,84.59
2018-08-31T02:28:33.116Z,84.88
2018-08-31T02:29:33.124Z,85.35
2018-08-31T02:30:33.132Z,84.49
2018-08-31T02:31:33.068Z,84.97
2018-08-31T02:32:33.048Z,85.64
2018-08-31T02:33:33.045Z,85.25
2018-08-31T02:34:33.033Z,85.45
2018-08-31T02:35:33.011Z,85.93
2018-08-31T02:36:33.050Z,85.73
2018-08-31T02:37:32.978Z,85.93
2018-08-31T02:38:32.980Z,86.11
2018-08-31T02:39:32.959Z,85.83
2018-08-31T02:40:32.948Z,85.93
2018-08-31T02:41:32.939Z,86.30
2018-08-31T02:42:32.915Z,86.11
2018-08-31T02:43:32.903Z,86.40
2018-08-31T02:44:32.882Z,86.02
2018-08-31T02:45:32.869Z,86.49
2018-08-31T02:46:32.885Z,86.49
2018-08-31T02:47:32.844Z,86.69
2018-08-31T02:48:32.855Z,86.59
2018-08-31T02:49:32.812Z,86.78
2018-08-31T02:50:32.811Z,86.98
2018-08-31T02:51:32.784Z,86.98
2018-08-31T02:52:32.827Z,86.98
2018-08-31T02:53:32.761Z,87.07
2018-08-31T02:54:32.740Z,87.16
2018-08-31T02:55:32.732Z,87.07
2018-08-31T02:56:32.717Z,87.16
2018-08-31T02:57:32.697Z,86.98
2018-08-31T02:58:32.696Z,86.88
2018-08-31T02:59:32.682Z,86.98
2018-08-31T03:00:32.664Z,86.59
2018-08-31T03:01:32.635Z,86.40
2018-08-31T03:02:32.633Z,85.93
2018-08-31T03:03:32.635Z,85.93
2018-08-31T03:04:32.888Z,85.45
2018-08-31T03:05:32.590Z,85.93
2018-08-31T03:06:32.577Z,85.64
2018-08-31T03:07:32.563Z,85.83
2018-08-31T03:08:32.542Z,85.25
2018-08-31T03:09:32.528Z,85.83
2018-08-31T03:10:32.556Z,85.64
2018-08-31T03:11:32.623Z,85.64
2018-08-31T03:12:32.496Z,85.83
2018-08-31T03:13:32.472Z,86.02
2018-08-31T03:14:32.454Z,85.25
2018-08-31T03:15:32.477Z,85.45
2018-08-31T03:16:32.466Z,85.54
2018-08-31T03:17:32.418Z,84.88
2018-08-31T03:18:32.444Z,84.97
2018-08-31T03:19:32.411Z,84.69
2018-08-31T03:20:32.379Z,84.78
2018-08-31T03:21:32.356Z,85.06
2018-08-31T03:22:32.370Z,84.88
2018-08-31T03:23:32.339Z,84.49
2018-08-31T03:24:32.322Z,84.49
2018-08-31T03:25:32.297Z,85.45
2018-08-31T03:26:32.295Z,84.78
2018-08-31T03:27:32.297Z,85.06
2018-08-31T03:28:32.260Z,84.97
2018-08-31T03:29:32.300Z,85.16
2018-08-31T03:30:32.248Z,85.54
2018-08-31T03:31:32.222Z,84.49
2018-08-31T03:32:32.210Z,84.88
2018-08-31T03:33:32.193Z,84.78
2018-08-31T03:34:32.171Z,85.06
2018-08-31T03:35:32.196Z,84.78
2018-08-31T03:36:32.157Z,84.88
2018-08-31T03:37:32.136Z,84.97
2018-08-31T03:38:32.126Z,85.45
2018-08-31T03:39:32.103Z,84.69
2018-08-31T03:40:32.127Z,85.45
2018-08-31T03:41:32.087Z,85.45
2018-08-31T03:42:32.356Z,85.06
2018-08-31T03:43:32.051Z,84.97
2018-08-31T03:44:32.033Z,84.49
2018-08-31T03:45:32.018Z,85.06
2018-08-31T03:46:32.012Z,84.59
2018-08-31T03:47:32.003Z,85.54
2018-08-31T03:48:32.017Z,86.11
2018-08-31T03:49:31.975Z,86.11
2018-08-31T03:50:31.949Z,86.02
2018-08-31T03:51:31.945Z,86.11
2018-08-31T03:52:31.953Z,85.93
2018-08-31T03:53:31.921Z,86.11
2018-08-31T03:54:31.898Z,85.73
2018-08-31T03:55:31.881Z,85.73
2018-08-31T03:56:31.872Z,85.64
2018-08-31T03:57:31.848Z,85.73
2018-08-31T03:58:31.835Z,85.93
2018-08-31T03:59:31.828Z,85.83
2018-08-31T04:00:31.834Z,85.73
2018-08-31T04:01:31.835Z,86.11
2018-08-31T04:02:31.779Z,86.02
2018-08-31T04:03:31.762Z,86.02
2018-08-31T04:04:31.748Z,85.73
2018-08-31T04:05:31.729Z,86.49
2018-08-31T04:06:31.742Z,86.69
2018-08-31T04:07:31.708Z,86.59
2018-08-31T04:08:31.699Z,86.88
2018-08-31T04:09:31.684Z,86.88
2018-08-31T04:10:31.667Z,86.88
2018-08-31T04:11:31.685Z,86.69
2018-08-31T04:12:31.636Z,87.35
2018-08-31T04:13:31.626Z,87.35
2018-08-31T04:14:31.649Z,86.98
2018-08-31T04:15:31.597Z,86.49
2018-08-31T04:16:31.582Z,86.69
2018-08-31T04:17:31.563Z,87.07
2018-08-31T04:18:31.560Z,87.07
2018-08-31T04:19:31.610Z,86.69
2018-08-31T04:20:31.529Z,86.69
2018-08-31T04:21:31.511Z,86.40
2018-08-31T04:22:31.542Z,86.49
2018-08-31T04:23:31.486Z,86.02
2018-08-31T04:24:31.463Z,85.54
2018-08-31T04:25:31.491Z,85.93
2018-08-31T04:26:31.439Z,86.02
2018-08-31T04:27:31.425Z,85.73
2018-08-31T04:28:31.428Z,85.54
2018-08-31T04:29:31.397Z,85.93
2018-08-31T04:30:31.418Z,85.83
2018-08-31T04:31:31.371Z,85.73
2018-08-31T04:32:31.347Z,84.59
2018-08-31T04:33:31.341Z,84.49
2018-08-31T04:34:31.338Z,84.97
2018-08-31T04:35:31.344Z,85.06
2018-08-31T04:36:31.309Z,85.06
2018-08-31T04:37:31.323Z,84.97
2018-08-31T04:38:31.271Z,85.11
2018-08-31T04:39:31.258Z,84.88
2018-08-31T04:40:31.239Z,84.72
2018-08-31T04:41:31.263Z,84.82
2018-08-31T04:42:31.249Z,85.06
2018-08-31T04:43:31.220Z,84.82
2018-08-31T04:44:31.189Z,84.69
2018-08-31T04:45:31.193Z,84.59
2018-08-31T04:46:31.167Z,84.69
2018-08-31T04:47:31.179Z,85.25
2018-08-31T04:48:31.130Z,84.78
2018-08-31T04:49:31.119Z,84.69
2018-08-31T04:50:31.139Z,85.06
2018-08-31T04:51:31.082Z,84.59
2018-08-31T04:52:31.135Z,84.59
2018-08-31T04:53:31.050Z,84.78
2018-08-31T04:54:31.044Z,84.59
2018-08-31T04:55:31.025Z,85.35
2018-08-31T04:56:31.016Z,84.78
2018-08-31T04:57:30.999Z,84.72
2018-08-31T04:58:31.003Z,84.78
2018-08-31T04:59:30.975Z,85.35
2018-08-31T05:00:30.956Z,85.25
2018-08-31T05:01:30.948Z,84.59
2018-08-31T05:02:30.930Z,84.69
2018-08-31T05:03:30.920Z,84.78
2018-08-31T05:04:30.903Z,84.78
2018-08-31T05:05:30.887Z,84.78
2018-08-31T05:06:30.864Z,84.69
2018-08-31T05:07:30.860Z,84.97
2018-08-31T05:08:30.923Z,84.59
2018-08-31T05:09:30.825Z,85.01
2018-08-31T05:10:30.822Z,84.69
2018-08-31T05:11:30.806Z,84.88
2018-08-31T05:12:30.788Z,84.59
2018-08-31T05:13:30.775Z,84.78
2018-08-31T05:14:30.797Z,84.97
2018-08-31T05:15:30.744Z,84.59
2018-08-31T05:16:30.735Z,84.88
2018-08-31T05:17:30.719Z,84.97
2018-08-31T05:18:30.718Z,84.63
2018-08-31T05:19:30.743Z,84.97
2018-08-31T05:20:30.681Z,84.78
2018-08-31T05:21:30.672Z,84.78
2018-08-31T05:22:30.680Z,84.82
2018-08-31T05:23:30.641Z,84.59
2018-08-31T05:24:30.636Z,84.78
2018-08-31T05:25:30.628Z,84.59
2018-08-31T05:26:30.592Z,84.78
2018-08-31T05:27:30.582Z,84.72
2018-08-31T05:28:30.683Z,84.63
2018-08-31T05:29:30.540Z,84.34
2018-08-31T05:30:30.564Z,84.44
2018-08-31T05:31:30.528Z,84.63
2018-08-31T05:32:30.542Z,84.49
2018-08-31T05:33:30.491Z,84.53
2018-08-31T05:34:30.482Z,84.63
2018-08-31T05:35:30.468Z,84.63
2018-08-31T05:36:30.495Z,84.63
2018-08-31T05:37:30.437Z,84.63
2018-08-31T05:38:30.421Z,84.16
2018-08-31T05:39:30.414Z,83.87
2018-08-31T05:40:30.395Z,84.44
2018-08-31T05:41:30.371Z,84.63
2018-08-31T05:42:30.407Z,84.72
2018-08-31T05:43:30.367Z,84.63
2018-08-31T05:44:30.343Z,84.82
2018-08-31T05:45:30.335Z,84.53
2018-08-31T05:46:30.314Z,84.92
2018-08-31T05:47:30.325Z,84.82
2018-08-31T05:48:30.312Z,84.82
2018-08-31T05:49:30.280Z,84.72
2018-08-31T05:50:30.261Z,84.92
2018-08-31T05:51:30.233Z,83.96
2018-08-31T05:52:30.236Z,84.34
2018-08-31T05:53:30.443Z,83.87
2018-08-31T05:54:30.213Z,84.16
2018-08-31T05:55:30.189Z,83.87
2018-08-31T05:56:30.182Z,83.87
2018-08-31T05:57:30.151Z,84.16
2018-08-31T05:58:30.149Z,84.34
2018-08-31T05:59:30.163Z,84.63
2018-08-31T06:00:30.107Z,84.82
2018-08-31T06:01:30.110Z,84.82
2018-08-31T06:02:30.103Z,85.01
2018-08-31T06:03:30.129Z,84.63
2018-08-31T06:04:30.062Z,84.72
2018-08-31T06:05:30.047Z,85.21
2018-08-31T06:06:30.035Z,85.39
2018-08-31T06:07:30.016Z,85.49
2018-08-31T06:08:30.014Z,86.06
2018-08-31T06:09:30.329Z,85.77
2018-08-31T06:10:29.974Z,86.06
2018-08-31T06:11:29.977Z,85.77
2018-08-31T06:12:29.953Z,86.35
2018-08-31T06:13:29.945Z,86.63
2018-08-31T06:14:29.936Z,86.82
2018-08-31T06:15:29.915Z,86.35
2018-08-31T06:16:29.896Z,86.63
2018-08-31T06:17:29.877Z,86.06
2018-08-31T06:18:29.875Z,85.97
2018-08-31T06:19:29.892Z,86.06
2018-08-31T06:20:29.848Z,86.35
2018-08-31T06:21:29.825Z,86.54
2018-08-31T06:22:29.811Z,86.82
2018-08-31T06:23:29.824Z,87.30
2018-08-31T06:24:29.784Z,86.92
2018-08-31T06:25:29.811Z,86.92
2018-08-31T06:26:29.768Z,86.82
2018-08-31T06:27:29.750Z,86.44
2018-08-31T06:28:29.726Z,86.92
2018-08-31T06:29:31.858Z,86.92
2018-08-31T06:30:29.740Z,86.63
2018-08-31T06:31:29.693Z,86.82
2018-08-31T06:32:29.697Z,87.21
2018-08-31T06:33:29.705Z,87.40
2018-08-31T06:34:29.653Z,87.78
2018-08-31T06:35:29.642Z,87.40
2018-08-31T06:36:29.656Z,87.21
2018-08-31T06:37:29.646Z,87.02
2018-08-31T06:38:29.589Z,87.11
2018-08-31T06:39:29.589Z,86.54
2018-08-31T06:40:29.563Z,87.30
2018-08-31T06:41:29.559Z,86.82
2018-08-31T06:42:29.600Z,87.40
2018-08-31T06:43:29.527Z,87.97
2018-08-31T06:44:29.514Z,87.59
2018-08-31T06:45:29.513Z,87.68
2018-08-31T06:46:29.495Z,88.54
2018-08-31T06:47:29.483Z,88.01
2018-08-31T06:48:29.488Z,88.11
2018-08-31T06:49:29.450Z,88.01
2018-08-31T06:50:29.430Z,87.82
2018-08-31T06:51:29.441Z,87.92
2018-08-31T06:52:29.407Z,87.44
2018-08-31T06:53:29.429Z,87.35
2018-08-31T06:54:29.387Z,86.77
2018-08-31T06:55:29.378Z,86.96
2018-08-31T06:56:29.359Z,87.06
2018-08-31T06:57:29.352Z,86.68
2018-08-31T06:58:29.359Z,86.77
2018-08-31T06:59:29.309Z,87.01
2018-08-31T07:00:29.322Z,86.91
2018-08-31T07:01:29.291Z,87.29
2018-08-31T07:02:29.290Z,87.10
2018-08-31T07:03:29.264Z,86.91
2018-08-31T07:04:29.260Z,88.34
2018-08-31T07:05:29.230Z,87.77
2018-08-31T07:06:29.227Z,87.77
2018-08-31T07:07:29.205Z,86.82
2018-08-31T07:08:29.203Z,87.39
2018-08-31T07:09:29.223Z,86.86
2018-08-31T07:10:29.166Z,86.67
2018-08-31T07:11:29.228Z,86.86
2018-08-31T07:12:29.208Z,86.29
2018-08-31T07:13:29.136Z,85.71
2018-08-31T07:14:29.122Z,86.19
2018-08-31T07:15:29.119Z,86.47
2018-08-31T07:16:29.093Z,86.19
2018-08-31T07:17:29.085Z,86.57
2018-08-31T07:18:29.072Z,86.71
2018-08-31T07:19:29.094Z,86.76
2018-08-31T07:20:29.077Z,87.43
2018-08-31T07:21:29.036Z,87.24
2018-08-31T07:22:29.027Z,87.43
2018-08-31T07:23:29.047Z,86.52
2018-08-31T07:24:29.018Z,86.61
2018-08-31T07:25:28.986Z,86.33
2018-08-31T07:26:29.078Z,85.94
2018-08-31T07:27:28.996Z,86.33
2018-08-31T07:28:28.953Z,86.14
2018-08-31T07:29:28.942Z,87.19
2018-08-31T07:30:28.938Z,87.38
2018-08-31T07:31:28.924Z,87.09
2018-08-31T07:32:28.982Z,87.19
2018-08-31T07:33:28.890Z,86.90
2018-08-31T07:34:28.871Z,85.57
2018-08-31T07:35:28.867Z,85.75
2018-08-31T07:36:28.922Z,86.37
2018-08-31T07:37:28.842Z,86.14
2018-08-31T07:38:28.869Z,86.28
2018-08-31T07:39:28.822Z,86.37
2018-08-31T07:40:28.806Z,85.99
2018-08-31T07:41:28.797Z,86.33
2018-08-31T07:42:28.784Z,87.04
2018-08-31T07:43:28.843Z,86.37
2018-08-31T07:44:28.765Z,87.04
2018-08-31T07:45:28.750Z,85.61
2018-08-31T07:46:28.745Z,86.37
2018-08-31T07:47:28.740Z,86.37
2018-08-31T07:48:28.718Z,85.80
2018-08-31T07:49:28.715Z,86.37
2018-08-31T07:50:28.695Z,86.47
2018-08-31T07:51:28.684Z,87.04
2018-08-31T07:52:28.672Z,87.14
2018-08-31T07:53:28.686Z,86.94
2018-08-31T07:54:28.681Z,87.33
2018-08-31T07:55:28.650Z,87.52
2018-08-31T07:56:28.620Z,86.18
2018-08-31T07:57:28.614Z,85.71
2018-08-31T07:58:28.604Z,85.80
2018-08-31T07:59:28.878Z,85.99
2018-08-31T08:00:28.573Z,85.89
2018-08-31T08:01:28.569Z,86.08
2018-08-31T08:02:28.559Z,86.08
2018-08-31T08:03:28.544Z,86.57
2018-08-31T08:04:28.534Z,86.28
2018-08-31T08:05:28.562Z,86.28
2018-08-31T08:06:28.495Z,86.28
2018-08-31T08:07:28.527Z,86.28
2018-08-31T08:08:28.487Z,85.99
2018-08-31T08:09:28.503Z,84.94
2018-08-31T08:10:28.464Z,85.03
2018-08-31T08:11:28.457Z,84.55
2018-08-31T08:12:28.440Z,84.75
2018-08-31T08:13:28.434Z,84.94
2018-08-31T08:14:28.453Z,85.13
2018-08-31T08:15:28.411Z,84.88
2018-08-31T08:16:28.391Z,85.51
2018-08-31T08:17:28.372Z,85.61
2018-08-31T08:18:28.365Z,84.98
2018-08-31T08:19:28.365Z,85.13
2018-08-31T08:20:28.337Z,85.41
2018-08-31T08:21:28.436Z,85.51
2018-08-31T08:22:28.330Z,85.89
2018-08-31T08:23:28.317Z,85.41
2018-08-31T08:24:28.300Z,85.03
2018-08-31T08:25:28.281Z,85.51
2018-08-31T08:26:28.326Z,85.65
2018-08-31T08:27:28.291Z,85.94
2018-08-31T08:28:28.276Z,86.41
2018-08-31T08:29:28.433Z,85.55
2018-08-31T08:30:28.233Z,85.17
2018-08-31T08:31:28.224Z,85.65
2018-08-31T08:32:28.242Z,85.55
2018-08-31T08:33:28.229Z,85.55
2018-08-31T08:34:28.185Z,84.69
2018-08-31T08:35:28.192Z,84.59
2018-08-31T08:36:28.221Z,84.12
2018-08-31T08:37:28.229Z,84.41
2018-08-31T08:38:28.280Z,84.41
2018-08-31T08:39:28.135Z,84.41
2018-08-31T08:40:28.123Z,84.88
2018-08-31T08:41:28.107Z,85.17
2018-08-31T08:42:28.198Z,84.79
2018-08-31T08:43:28.115Z,84.41
2018-08-31T08:44:28.075Z,84.12
2018-08-31T08:45:28.091Z,84.02
2018-08-31T08:46:28.058Z,84.41
2018-08-31T08:47:28.047Z,84.41
2018-08-31T08:48:28.132Z,84.31
2018-08-31T08:49:28.017Z,83.54
2018-08-31T08:50:28.040Z,83.45
2018-08-31T08:51:28.003Z,84.02
2018-08-31T08:52:27.989Z,84.31
2018-08-31T08:53:27.980Z,84.22
2018-08-31T08:54:28.004Z,84.45
2018-08-31T08:55:27.950Z,83.59
2018-08-31T08:56:27.946Z,83.54
2018-08-31T08:57:27.930Z,83.64
2018-08-31T08:58:27.918Z,84.31
2018-08-31T08:59:27.946Z,83.68
2018-08-31T09:00:27.901Z,83.30
2018-08-31T09:01:27.902Z,83.39
2018-08-31T09:02:27.877Z,83.78
2018-08-31T09:03:27.872Z,83.68
2018-08-31T09:04:27.886Z,82.34
2018-08-31T09:05:27.877Z,81.96
2018-08-31T09:06:27.947Z,81.86
2018-08-31T09:07:27.816Z,81.86
2018-08-31T09:08:27.818Z,81.29
2018-08-31T09:09:27.791Z,81.00
2018-08-31T09:10:27.804Z,81.29
2018-08-31T09:11:27.784Z,81.29
2018-08-31T09:12:27.853Z,81.00
2018-08-31T09:13:27.761Z,81.10
2018-08-31T09:14:27.765Z,81.38
2018-08-31T09:15:27.734Z,81.10
2018-08-31T09:16:27.721Z,81.00
2018-08-31T09:17:27.721Z,80.04
2018-08-31T09:18:27.784Z,80.90
2018-08-31T09:19:27.689Z,80.62
2018-08-31T09:20:27.679Z,80.52
2018-08-31T09:21:27.676Z,80.62
2018-08-31T09:22:27.657Z,81.10
2018-08-31T09:23:27.680Z,81.00
2018-08-31T09:24:27.701Z,81.38
2018-08-31T09:25:27.634Z,81.23
2018-08-31T09:26:27.623Z,80.47
2018-08-31T09:27:27.600Z,80.85
2018-08-31T09:28:27.601Z,79.70
2018-08-31T09:29:27.587Z,79.41
2018-08-31T09:30:27.580Z,78.17
2018-08-31T09:31:27.567Z,78.07
2018-08-31T09:32:27.576Z,77.31
2018-08-31T09:33:27.559Z,78.07
2018-08-31T09:34:27.565Z,78.36
2018-08-31T09:35:27.625Z,78.45
2018-08-31T09:36:27.513Z,77.40
2018-08-31T09:37:27.505Z,76.73
2018-08-31T09:38:27.646Z,75.77
2018-08-31T09:39:27.480Z,75.96
2018-08-31T09:40:27.504Z,76.54
2018-08-31T09:41:27.469Z,76.35
2018-08-31T09:42:27.455Z,76.54
2018-08-31T09:43:27.455Z,76.35
2018-08-31T09:44:27.441Z,75.39
2018-08-31T09:45:27.421Z,74.24
2018-08-31T09:46:27.411Z,73.86
2018-08-31T09:47:27.410Z,73.57
2018-08-31T09:48:27.398Z,73.47
2018-08-31T09:49:27.411Z,73.86
2018-08-31T09:50:27.373Z,73.95
2018-08-31T09:51:27.355Z,74.15
2018-08-31T09:52:27.352Z,73.47
2018-08-31T09:53:27.350Z,74.52
2018-08-31T09:54:27.388Z,74.95
2018-08-31T09:55:27.321Z,75.04
2018-08-31T09:56:27.308Z,74.85
2018-08-31T09:57:27.317Z,74.95
2018-08-31T09:58:27.292Z,74.47
2018-08-31T09:59:27.283Z,74.18
2018-08-31T10:00:27.310Z,73.22
2018-08-31T10:01:27.260Z,73.90
2018-08-31T10:02:27.260Z,73.13
2018-08-31T10:03:27.241Z,72.45
2018-08-31T10:04:27.232Z,72.64
2018-08-31T10:05:27.251Z,73.51
2018-08-31T10:06:27.208Z,73.32
2018-08-31T10:07:27.207Z,72.07
2018-08-31T10:08:27.185Z,72.74
2018-08-31T10:09:27.194Z,71.78
2018-08-31T10:10:27.204Z,71.88
2018-08-31T10:11:27.160Z,70.92
2018-08-31T10:12:27.147Z,70.64
2018-08-31T10:13:27.574Z,70.25
2018-08-31T10:14:27.133Z,70.35
2018-08-31T10:15:27.117Z,69.48
2018-08-31T10:16:27.111Z,69.39
2018-08-31T10:17:27.118Z,70.35
2018-08-31T10:18:27.085Z,71.31
2018-08-31T10:19:27.094Z,70.54
2018-08-31T10:20:27.070Z,70.64
2018-08-31T10:21:27.066Z,69.71
2018-08-31T10:22:27.387Z,67.57
2018-08-31T10:23:27.040Z,66.99
2018-08-31T10:24:27.037Z,67.57
2018-08-31T10:25:27.025Z,66.74
2018-08-31T10:26:27.028Z,67.76
2018-08-31T10:27:27.011Z,66.99
2018-08-31T10:28:27.001Z,67.89
2018-08-31T10:29:26.989Z,67.99
2018-08-31T10:30:26.978Z,67.60
2018-08-31T10:31:26.962Z,66.55
2018-08-31T10:32:27.291Z,67.99
2018-08-31T10:33:26.944Z,67.69
2018-08-31T10:34:26.940Z,68.56
2018-08-31T10:35:26.936Z,68.08
2018-08-31T10:36:26.931Z,66.45
2018-08-31T10:37:26.917Z,65.20
2018-08-31T10:38:26.913Z,66.45
2018-08-31T10:39:27.171Z,66.06
2018-08-31T10:40:26.881Z,65.68
2018-08-31T10:41:26.882Z,65.68
2018-08-31T10:42:26.872Z,65.78
2018-08-31T10:43:26.872Z,65.30
2018-08-31T10:44:26.883Z,64.34
2018-08-31T10:45:26.839Z,64.05
2018-08-31T10:46:26.868Z,64.40
2018-08-31T10:47:26.825Z,63.96
2018-08-31T10:48:26.809Z,64.63
2018-08-31T10:49:26.863Z,65.11
2018-08-31T10:50:26.788Z,65.20
2018-08-31T10:51:26.787Z,66.16
2018-08-31T10:52:26.776Z,66.35
2018-08-31T10:53:26.761Z,66.55
2018-08-31T10:54:26.757Z,66.35
2018-08-31T10:55:26.745Z,64.63
2018-08-31T10:56:26.731Z,64.72
2018-08-31T10:57:26.727Z,65.59
2018-08-31T10:58:26.716Z,65.59
2018-08-31T10:59:26.716Z,64.53
2018-08-31T11:00:26.704Z,63.67
2018-08-31T11:01:26.684Z,63.19
2018-08-31T11:02:26.742Z,63.57
2018-08-31T11:03:26.678Z,63.67
2018-08-31T11:04:26.671Z,64.05
2018-08-31T11:05:26.664Z,64.53
2018-08-31T11:06:26.643Z,65.68
2018-08-31T11:07:26.634Z,64.82
2018-08-31T11:08:26.614Z,64.72
2018-08-31T11:09:26.619Z,63.96
2018-08-31T11:10:26.608Z,63.96
2018-08-31T11:11:26.613Z,63.86
2018-08-31T11:12:26.613Z,63.86
2018-08-31T11:13:26.587Z,64.82
2018-08-31T11:14:26.576Z,63.51
2018-08-31T11:15:26.563Z,64.56
2018-08-31T11:16:26.547Z,63.79
2018-08-31T11:17:26.532Z,63.32
2018-08-31T11:18:26.522Z,63.03
2018-08-31T11:19:26.523Z,63.03
2018-08-31T11:20:26.891Z,62.84
2018-08-31T11:21:26.507Z,62.93
2018-08-31T11:22:26.489Z,63.22
2018-08-31T11:23:26.484Z,63.12
2018-08-31T11:24:26.481Z,63.03
2018-08-31T11:25:26.462Z,63.03
2018-08-31T11:26:26.496Z,62.45
2018-08-31T11:27:26.446Z,61.11
2018-08-31T11:28:26.439Z,61.37
2018-08-31T11:29:26.425Z,61.30
2018-08-31T11:30:26.426Z,62.13
2018-08-31T11:31:26.439Z,61.85
2018-08-31T11:32:26.405Z,61.78
2018-08-31T11:33:26.396Z,61.78
2018-08-31T11:34:26.381Z,62.45
2018-08-31T11:35:26.376Z,63.03
2018-08-31T11:36:26.362Z,63.03
2018-08-31T11:37:26.357Z,62.45
2018-08-31T11:38:26.345Z,62.68
2018-08-31T11:39:26.336Z,62.16
2018-08-31T11:40:26.328Z,62.48
2018-08-31T11:41:26.315Z,61.43
2018-08-31T11:42:26.519Z,61.33
2018-08-31T11:43:26.387Z,60.92
2018-08-31T11:44:26.288Z,61.81
2018-08-31T11:45:26.279Z,62.58
2018-08-31T11:46:26.264Z,61.91
2018-08-31T11:47:26.269Z,62.39
2018-08-31T11:48:26.284Z,61.81
2018-08-31T11:49:26.238Z,62.58
2018-08-31T11:50:26.244Z,62.01
2018-08-31T11:51:26.231Z,61.72
2018-08-31T11:52:26.229Z,61.91
2018-08-31T11:53:26.237Z,60.38
2018-08-31T11:54:26.209Z,60.08
2018-08-31T11:55:26.199Z,60.08
2018-08-31T11:56:26.190Z,60.08
2018-08-31T11:57:26.178Z,59.41
2018-08-31T11:58:26.229Z,58.84
2018-08-31T11:59:26.154Z,60.57
2018-08-31T12:00:26.148Z,61.72
2018-08-31T12:01:26.223Z,61.24
2018-08-31T12:02:26.138Z,61.52
2018-08-31T12:03:26.131Z,61.62
2018-08-31T12:04:26.152Z,61.05
2018-08-31T12:05:26.110Z,59.73
2018-08-31T12:06:26.097Z,59.83
2018-08-31T12:07:26.100Z,59.51
2018-08-31T12:08:26.111Z,59.61
2018-08-31T12:09:26.066Z,59.51
2018-08-31T12:10:26.083Z,58.94
2018-08-31T12:11:26.058Z,59.92
2018-08-31T12:12:26.041Z,59.06
2018-08-31T12:13:26.039Z,59.41
2018-08-31T12:14:26.036Z,60.28
2018-08-31T12:15:26.020Z,61.46
2018-08-31T12:16:26.007Z,61.84
2018-08-31T12:17:26.005Z,61.75
2018-08-31T12:18:26.028Z,62.04
2018-08-31T12:19:25.980Z,60.50
2018-08-31T12:20:25.979Z,59.44
2018-08-31T12:21:25.975Z,58.00
2018-08-31T12:22:25.966Z,57.33
2018-08-31T12:23:25.943Z,57.04
2018-08-31T12:24:25.948Z,57.23
2018-08-31T12:25:25.926Z,56.56
2018-08-31T12:26:25.928Z,58.48
2018-08-31T12:27:25.929Z,58.87
2018-08-31T12:28:25.910Z,58.87
2018-08-31T12:29:25.965Z,58.87
2018-08-31T12:30:25.888Z,58.20
2018-08-31T12:31:25.887Z,57.90
2018-08-31T12:32:25.869Z,58.58
2018-08-31T12:33:25.873Z,58.87
2018-08-31T12:34:25.856Z,58.87
2018-08-31T12:35:25.883Z,59.47
2018-08-31T12:36:25.843Z,58.80
2018-08-31T12:37:25.832Z,57.93
2018-08-31T12:38:25.818Z,56.18
2018-08-31T12:39:25.867Z,56.85
2018-08-31T12:40:25.819Z,56.37
2018-08-31T12:41:25.805Z,55.32
2018-08-31T12:42:25.799Z,56.76
2018-08-31T12:43:25.786Z,57.14
2018-08-31T12:44:25.779Z,57.33
2018-08-31T12:45:25.772Z,57.52
2018-08-31T12:46:25.762Z,58.36
2018-08-31T12:47:26.063Z,58.87
2018-08-31T12:48:25.736Z,59.54
2018-08-31T12:49:25.742Z,58.77
2018-08-31T12:50:25.733Z,57.88
2018-08-31T12:51:25.722Z,58.55
2018-08-31T12:52:25.747Z,58.74